Time;durP1;ratioP1;P1;durP2;ratioP2;P2;SDS_P1;SDS_P2;PMS_P1;PMS_P2;Temp;Humidity;BMP_temperature;BMP_pressure;BME280_temperature;BME280_humidity;BME280_pressure;Samples;Min_cycle;Max_cycle;Signal;HPM_P1;HPM_P2
2023/01/21 00:01:01;;;;;;;;;;;-1.90;99.90;;;;;;5057277;28;19948;-79
2023/01/21 00:03:26;;;;;;;;;;;-1.90;99.90;;;;;;5039303;28;20277;-79
2023/01/21 00:05:52;;;;;;;;;;;-1.90;99.90;;;;;;5058244;28;19909;-79
2023/01/21 00:08:17;;;;;;;;;;;-1.90;99.90;;;;;;5039075;28;20357;-79
2023/01/21 00:10:43;;;;;;;;;;;-1.80;99.90;;;;;;5039378;28;19921;-79
2023/01/21 00:13:09;;;;;;;;;;;-1.80;99.90;;;;;;5056858;28;20324;-79
2023/01/21 00:15:34;;;;;;;;;;;-1.80;99.90;;;;;;5065312;28;19917;-79
2023/01/21 00:18:00;;;;;;;;;;;-1.80;99.90;;;;;;5073091;28;19908;-79
2023/01/21 00:20:26;;;;;;;;;;;-1.80;99.90;;;;;;5058662;28;19912;-79
2023/01/21 00:22:54;;;;;;;;;;;-1.80;99.90;;;;;;5058080;28;19909;-79
2023/01/21 00:25:20;;;;;;;;;;;-1.80;99.90;;;;;;5057068;28;19965;-79
2023/01/21 00:27:45;;;;;;;;;;;-1.80;99.90;;;;;;5057920;28;19913;-79
2023/01/21 00:30:11;;;;;;;;;;;-1.80;99.90;;;;;;5057513;28;19923;-79
2023/01/21 00:32:37;;;;;;;;;;;-1.80;99.90;;;;;;5057508;28;19924;-79
2023/01/21 00:35:03;;;;;;;;;;;-1.80;99.90;;;;;;5057255;28;19952;-79
2023/01/21 00:37:28;;;;;;;;;;;-1.80;99.90;;;;;;5057728;28;19959;-79
2023/01/21 00:39:54;;;;;;;;;;;-1.80;99.90;;;;;;5057341;28;19913;-79
2023/01/21 00:42:19;;;;;;;;;;;-1.80;99.90;;;;;;5057324;28;19913;-79
2023/01/21 00:44:45;;;;;;;;;;;-1.80;99.90;;;;;;5039488;28;19955;-79
2023/01/21 00:47:10;;;;;;;;;;;-1.80;99.90;;;;;;5059928;28;19920;-79
2023/01/21 00:49:36;;;;;;;;;;;-1.80;99.90;;;;;;5039471;28;19920;-79
2023/01/21 00:52:01;;;;;;;;;;;-1.80;99.90;;;;;;5058268;28;19913;-79
2023/01/21 00:54:27;;;;;;;;;;;-1.80;99.90;;;;;;5065767;28;19923;-79
2023/01/21 00:56:52;;;;;;;;;;;-1.80;99.90;;;;;;5058145;28;20285;-79
2023/01/21 00:59:18;;;;;;;;;;;-1.80;99.90;;;;;;5059180;28;19962;-79
2023/01/21 01:01:44;;;;;;;;;;;-1.80;99.90;;;;;;5059311;28;19928;-79
2023/01/21 01:04:12;;;;;;;;;;;-1.80;99.90;;;;;;5071794;28;19913;-79
2023/01/21 01:06:38;;;;;;;;;;;-1.80;99.90;;;;;;5078024;28;19929;-79
2023/01/21 01:09:03;;;;;;;;;;;-1.80;99.90;;;;;;5078560;28;19897;-78
2023/01/21 01:11:30;;;;;;;;;;;-1.80;99.90;;;;;;5078666;28;19901;-78
2023/01/21 01:13:57;;;;;;;;;;;-1.80;99.90;;;;;;5078871;28;19919;-78
2023/01/21 01:16:22;;;;;;;;;;;-1.80;99.90;;;;;;5078803;28;19909;-79
2023/01/21 01:18:48;;;;;;;;;;;-1.80;99.90;;;;;;5066786;28;19956;-78
2023/01/21 01:21:15;;;;;;;;;;;-1.80;99.90;;;;;;5056664;28;19975;-79
2023/01/21 01:23:41;;;;;;;;;;;-1.90;99.90;;;;;;5056490;28;19916;-78
2023/01/21 01:26:08;;;;;;;;;;;-1.80;99.90;;;;;;5055005;28;19908;-78
2023/01/21 01:28:34;;;;;;;;;;;-1.90;99.90;;;;;;5058567;28;19920;-79
2023/01/21 01:31:00;;;;;;;;;;;-1.80;99.90;;;;;;5062153;28;19916;-79
2023/01/21 01:33:26;;;;;;;;;;;-1.80;99.90;;;;;;5061270;28;19913;-78
2023/01/21 01:35:52;;;;;;;;;;;-1.80;99.90;;;;;;5058596;28;20396;-78
2023/01/21 01:38:19;;;;;;;;;;;-1.80;99.90;;;;;;5059265;28;20365;-78
2023/01/21 01:40:45;;;;;;;;;;;-1.80;99.90;;;;;;5059529;28;19915;-79
2023/01/21 01:43:13;;;;;;;;;;;-1.80;99.90;;;;;;5059650;28;20276;-79
2023/01/21 01:45:39;;;;;;;;;;;-1.80;99.90;;;;;;5058510;28;19963;-78
2023/01/21 01:48:05;;;;;;;;;;;-1.80;99.90;;;;;;5059184;28;19913;-79
2023/01/21 01:50:36;;;;;;;;;;;-1.80;99.90;;;;;;5042421;28;19939;-79
2023/01/21 01:53:01;;;;;;;;;;;-1.80;99.90;;;;;;5068556;28;19893;-79
2023/01/21 01:55:29;;;;;;;;;;;-1.90;99.90;;;;;;5067317;28;19976;-78
2023/01/21 01:57:55;;;;;;;;;;;-1.90;99.90;;;;;;5081187;28;19920;-78
2023/01/21 02:00:21;;;;;;;;;;;-2.00;99.90;;;;;;5081027;28;19931;-78
2023/01/21 02:03:43;;;;;;;;;;;-2.00;99.90;;;;;;5061966;28;19919;-77
2023/01/21 02:05:32;;;;;;;;;;;-2.00;99.90;;;;;;5051302;28;19909;-77
2023/01/21 02:07:58;;;;;;;;;;;-2.00;99.90;;;;;;5060304;28;19920;-78
2023/01/21 02:10:24;;;;;;;;;;;-2.00;99.90;;;;;;5071926;28;19921;-78
2023/01/21 02:12:49;;;;;;;;;;;-2.00;99.90;;;;;;5059541;28;20039;-79
2023/01/21 02:15:15;;;;;;;;;;;-1.90;99.90;;;;;;5065333;28;19913;-78
2023/01/21 02:17:46;;;;;;;;;;;-1.90;99.90;;;;;;5065353;28;19958;-78
2023/01/21 02:20:32;;;;;;;;;;;-1.90;99.90;;;;;;5058417;28;19908;-78
2023/01/21 02:23:04;;;;;;;;;;;-1.90;99.90;;;;;;5060922;28;19976;-78
2023/01/21 02:25:36;;;;;;;;;;;-2.00;99.90;;;;;;5058217;28;19909;-78
2023/01/21 02:28:13;;;;;;;;;;;-2.00;99.90;;;;;;5072467;28;19924;-79
2023/01/21 02:30:39;;;;;;;;;;;-1.90;99.90;;;;;;5058060;28;19916;-78
2023/01/21 02:33:12;;;;;;;;;;;-2.00;99.90;;;;;;5070635;28;19900;-78
2023/01/21 02:35:46;;;;;;;;;;;-2.00;99.90;;;;;;5079866;28;20011;-78
2023/01/21 02:38:31;;;;;;;;;;;-2.00;99.90;;;;;;5051155;28;20007;-79
2023/01/21 02:40:56;;;;;;;;;;;-2.00;99.90;;;;;;5077373;28;19928;-79
2023/01/21 02:43:28;;;;;;;;;;;-2.00;99.90;;;;;;5058734;28;19913;-79
2023/01/21 02:46:13;;;;;;;;;;;-2.00;99.90;;;;;;5059232;28;20376;-79
2023/01/21 02:48:42;;;;;;;;;;;-2.00;99.90;;;;;;5059112;28;19916;-79
2023/01/21 02:51:11;;;;;;;;;;;-2.00;99.90;;;;;;5058735;28;20277;-78
2023/01/21 02:53:36;;;;;;;;;;;-2.00;99.90;;;;;;5058562;28;20422;-79
2023/01/21 02:56:07;;;;;;;;;;;-2.00;99.90;;;;;;5058352;28;19963;-78
2023/01/21 02:58:34;;;;;;;;;;;-2.10;99.90;;;;;;5058548;28;20238;-79
2023/01/21 03:01:10;;;;;;;;;;;-2.10;99.90;;;;;;5057919;28;19917;-79
2023/01/21 03:03:44;;;;;;;;;;;-2.10;99.90;;;;;;5058529;28;19909;-78
2023/01/21 03:06:17;;;;;;;;;;;-2.10;99.90;;;;;;5057867;28;19909;-79
2023/01/21 03:08:53;;;;;;;;;;;-2.10;99.90;;;;;;5057425;28;20354;-79
2023/01/21 03:11:20;;;;;;;;;;;-2.10;99.90;;;;;;5057346;28;20003;-79
2023/01/21 03:19:18;;;;;;;;;;;-2.10;99.90;;;;;;5057548;28;20368;-79
2023/01/21 03:21:45;;;;;;;;;;;-2.10;99.90;;;;;;5056876;28;20300;-78
2023/01/21 03:24:12;;;;;;;;;;;-2.10;99.90;;;;;;5038814;28;20249;-78
2023/01/21 03:26:40;;;;;;;;;;;-2.10;99.90;;;;;;5056902;28;19908;-78
2023/01/21 03:29:08;;;;;;;;;;;-2.10;99.90;;;;;;5057065;28;19915;-78
2023/01/21 03:31:35;;;;;;;;;;;-2.20;99.90;;;;;;5056641;28;19920;-78
2023/01/21 03:34:02;;;;;;;;;;;-2.20;99.90;;;;;;5056811;28;19909;-79
2023/01/21 03:36:36;;;;;;;;;;;-2.30;99.90;;;;;;5038756;28;20419;-78
2023/01/21 03:39:07;;;;;;;;;;;-2.20;99.90;;;;;;5056829;28;19915;-78
2023/01/21 03:41:35;;;;;;;;;;;-2.20;99.90;;;;;;5056926;28;19940;-78
2023/01/21 03:44:01;;;;;;;;;;;-2.20;99.90;;;;;;5056494;28;19909;-79
2023/01/21 03:46:43;;;;;;;;;;;-2.20;99.90;;;;;;5056089;28;20399;-78
2023/01/21 03:49:15;;;;;;;;;;;-2.20;99.90;;;;;;5055792;28;19944;-78
2023/01/21 03:51:44;;;;;;;;;;;-2.30;99.90;;;;;;5055649;28;20008;-78
2023/01/21 03:54:09;;;;;;;;;;;-2.30;99.90;;;;;;5056209;28;19909;-78
2023/01/21 03:56:35;;;;;;;;;;;-2.30;99.90;;;;;;5056002;28;20042;-78
2023/01/21 03:59:00;;;;;;;;;;;-2.30;99.90;;;;;;5056230;28;19940;-78
2023/01/21 04:01:26;;;;;;;;;;;-2.30;99.90;;;;;;5055740;28;19920;-78
2023/01/21 04:03:51;;;;;;;;;;;-2.30;99.90;;;;;;5056423;28;19915;-78
2023/01/21 04:06:19;;;;;;;;;;;-2.30;99.90;;;;;;5038733;28;19913;-78
2023/01/21 04:08:45;;;;;;;;;;;-2.30;99.90;;;;;;5055986;28;20387;-78
2023/01/21 04:11:10;;;;;;;;;;;-2.30;99.90;;;;;;5056228;28;20010;-78
2023/01/21 04:13:36;;;;;;;;;;;-2.40;99.90;;;;;;5056349;28;19909;-78
2023/01/21 04:16:02;;;;;;;;;;;-2.40;99.90;;;;;;5055961;28;19920;-78
2023/01/21 04:18:27;;;;;;;;;;;-2.40;99.90;;;;;;5056299;28;20030;-78
2023/01/21 04:20:53;;;;;;;;;;;-2.40;99.90;;;;;;5055753;28;20012;-78
2023/01/21 04:23:18;;;;;;;;;;;-2.40;99.90;;;;;;5055855;28;19912;-78
2023/01/21 04:25:46;;;;;;;;;;;-2.40;99.90;;;;;;5037866;28;20007;-78
2023/01/21 04:28:12;;;;;;;;;;;-2.40;99.90;;;;;;5056154;28;19909;-78
2023/01/21 04:30:37;;;;;;;;;;;-2.40;99.90;;;;;;5055966;28;19971;-78
2023/01/21 04:33:03;;;;;;;;;;;-2.40;99.90;;;;;;5055939;28;20023;-78
2023/01/21 04:35:28;;;;;;;;;;;-2.40;99.90;;;;;;5055546;28;19913;-78
2023/01/21 04:37:54;;;;;;;;;;;-2.40;99.90;;;;;;5055292;28;19920;-78
2023/01/21 04:40:19;;;;;;;;;;;-2.50;99.90;;;;;;5037443;28;19916;-78
2023/01/21 04:42:45;;;;;;;;;;;-2.50;99.90;;;;;;5055447;28;19965;-78
2023/01/21 04:45:11;;;;;;;;;;;-2.50;99.90;;;;;;5037537;28;19960;-78
2023/01/21 04:47:40;;;;;;;;;;;-2.50;99.90;;;;;;5037958;28;20368;-78
2023/01/21 04:50:06;;;;;;;;;;;-2.50;99.90;;;;;;5070021;28;19913;-78
2023/01/21 04:52:31;;;;;;;;;;;-2.50;99.90;;;;;;5062163;28;19913;-78
2023/01/21 04:54:57;;;;;;;;;;;-2.40;99.90;;;;;;5057017;28;19955;-78
2023/01/21 04:57:22;;;;;;;;;;;-2.40;99.90;;;;;;5056304;28;19948;-78
2023/01/21 04:59:48;;;;;;;;;;;-2.40;99.90;;;;;;5055656;28;20011;-78
2023/01/21 05:02:13;;;;;;;;;;;-2.40;99.90;;;;;;5055950;28;19966;-78
2023/01/21 05:04:39;;;;;;;;;;;-2.40;99.90;;;;;;5059762;28;20365;-78
2023/01/21 05:07:05;;;;;;;;;;;-2.40;99.90;;;;;;5060112;28;19913;-78
2023/01/21 05:09:32;;;;;;;;;;;-2.40;99.90;;;;;;5059482;28;20316;-78
2023/01/21 05:11:57;;;;;;;;;;;-2.40;99.90;;;;;;5059198;28;19920;-78
2023/01/21 05:14:23;;;;;;;;;;;-2.40;99.90;;;;;;5059492;28;19916;-78
2023/01/21 05:16:49;;;;;;;;;;;-2.40;99.90;;;;;;5059903;28;19945;-78
2023/01/21 05:19:14;;;;;;;;;;;-2.30;99.90;;;;;;5059738;28;19966;-78
2023/01/21 05:21:40;;;;;;;;;;;-2.30;99.90;;;;;;5060447;28;19999;-78
2023/01/21 05:24:05;;;;;;;;;;;-2.30;99.90;;;;;;5041496;28;19920;-78
2023/01/21 05:26:31;;;;;;;;;;;-2.30;99.90;;;;;;5059297;28;20030;-78
2023/01/21 05:28:56;;;;;;;;;;;-2.30;99.90;;;;;;5058733;28;19913;-78
2023/01/21 05:31:23;;;;;;;;;;;-2.30;99.90;;;;;;5040806;28;19913;-78
2023/01/21 05:33:49;;;;;;;;;;;-2.30;99.90;;;;;;5059207;28;19913;-78
2023/01/21 05:36:15;;;;;;;;;;;-2.30;99.90;;;;;;5059175;28;20295;-78
2023/01/21 05:38:40;;;;;;;;;;;-2.30;99.90;;;;;;5059287;28;19984;-78
2023/01/21 05:41:06;;;;;;;;;;;-2.30;99.90;;;;;;5059034;28;19913;-78
2023/01/21 05:43:31;;;;;;;;;;;-2.30;99.90;;;;;;5059089;28;19931;-78
2023/01/21 05:45:57;;;;;;;;;;;-2.30;99.90;;;;;;5041345;28;19913;-78
2023/01/21 05:48:22;;;;;;;;;;;-2.30;99.90;;;;;;5058759;28;19917;-78
2023/01/21 05:50:48;;;;;;;;;;;-2.30;99.90;;;;;;5058842;28;19917;-78
2023/01/21 05:53:14;;;;;;;;;;;-2.30;99.90;;;;;;5058492;28;19912;-78
2023/01/21 05:55:40;;;;;;;;;;;-2.30;99.90;;;;;;5058077;28;19961;-78
2023/01/21 05:58:05;;;;;;;;;;;-2.40;99.90;;;;;;5059125;28;20326;-78
2023/01/21 06:00:31;;;;;;;;;;;-2.30;99.90;;;;;;5058185;28;19921;-78
2023/01/21 06:02:58;;;;;;;;;;;-2.30;99.90;;;;;;5040434;28;19917;-78
2023/01/21 06:05:24;;;;;;;;;;;-2.30;99.90;;;;;;5058747;28;19913;-79
2023/01/21 06:07:50;;;;;;;;;;;-2.40;99.90;;;;;;5058522;28;19915;-79
2023/01/21 06:10:15;;;;;;;;;;;-2.40;99.90;;;;;;5059034;28;20440;-79
2023/01/21 06:12:41;;;;;;;;;;;-2.40;99.90;;;;;;5060371;28;20007;-79
2023/01/21 06:15:06;;;;;;;;;;;-2.40;99.90;;;;;;5059615;28;19913;-79
2023/01/21 06:17:32;;;;;;;;;;;-2.40;99.90;;;;;;5059695;28;19959;-79
2023/01/21 06:19:58;;;;;;;;;;;-2.40;99.90;;;;;;5040935;28;19960;-79
2023/01/21 06:22:23;;;;;;;;;;;-2.40;99.90;;;;;;5058865;28;20000;-83
2023/01/21 06:24:49;;;;;;;;;;;-2.40;99.90;;;;;;5039540;28;19913;-82
2023/01/21 06:27:15;;;;;;;;;;;-2.40;99.90;;;;;;5057225;28;20331;-82
2023/01/21 06:29:40;;;;;;;;;;;-2.30;99.90;;;;;;5057070;28;20011;-82
2023/01/21 06:32:06;;;;;;;;;;;-2.30;99.90;;;;;;5056702;28;20364;-78
2023/01/21 06:34:31;;;;;;;;;;;-2.30;99.90;;;;;;5056517;28;19966;-78
2023/01/21 06:36:57;;;;;;;;;;;-2.30;99.90;;;;;;5056992;28;19913;-78
2023/01/21 06:39:22;;;;;;;;;;;-2.20;99.90;;;;;;5038683;28;19913;-79
2023/01/21 06:41:48;;;;;;;;;;;-2.30;99.90;;;;;;5038584;28;19920;-79
2023/01/21 06:44:13;;;;;;;;;;;-2.30;99.90;;;;;;5056888;28;19920;-78
2023/01/21 06:46:39;;;;;;;;;;;-2.30;99.90;;;;;;5056318;28;19979;-78
2023/01/21 06:49:04;;;;;;;;;;;-2.20;99.90;;;;;;5056658;28;19913;-79
2023/01/21 06:51:30;;;;;;;;;;;-2.20;99.90;;;;;;5038902;28;19923;-78
2023/01/21 06:53:56;;;;;;;;;;;-2.20;99.90;;;;;;5056733;28;20003;-78
2023/01/21 06:56:21;;;;;;;;;;;-2.20;99.90;;;;;;5056964;28;19913;-78
2023/01/21 06:58:47;;;;;;;;;;;-2.20;99.90;;;;;;5057506;28;19916;-78
2023/01/21 07:01:12;;;;;;;;;;;-2.10;99.90;;;;;;5056958;28;19921;-78
2023/01/21 07:03:38;;;;;;;;;;;-2.20;99.90;;;;;;5057874;28;19951;-78
2023/01/21 07:06:04;;;;;;;;;;;-2.20;99.90;;;;;;5041180;28;19913;-78
2023/01/21 07:08:29;;;;;;;;;;;-2.10;99.90;;;;;;5069694;28;19916;-78
2023/01/21 07:10:55;;;;;;;;;;;-2.10;99.90;;;;;;5058903;28;19979;-78
2023/01/21 07:13:20;;;;;;;;;;;-2.10;99.90;;;;;;5057983;28;19920;-78
2023/01/21 07:15:46;;;;;;;;;;;-2.10;99.90;;;;;;5057498;28;20002;-78
2023/01/21 07:18:12;;;;;;;;;;;-2.10;99.90;;;;;;5057230;28;20284;-78
2023/01/21 07:20:39;;;;;;;;;;;-2.10;99.90;;;;;;5057792;28;19913;-79
2023/01/21 07:23:04;;;;;;;;;;;-2.10;99.90;;;;;;5057350;28;19909;-78
2023/01/21 07:25:31;;;;;;;;;;;-2.10;99.90;;;;;;5056698;28;19999;-78
2023/01/21 07:27:57;;;;;;;;;;;-2.10;99.90;;;;;;5056638;28;19923;-77
2023/01/21 07:30:22;;;;;;;;;;;-2.10;99.90;;;;;;5055373;28;19917;-77
2023/01/21 07:32:48;;;;;;;;;;;-2.10;99.90;;;;;;5037761;28;19913;-76
2023/01/21 07:35:14;;;;;;;;;;;-2.20;99.90;;;;;;5055013;28;20266;-77
2023/01/21 07:37:39;;;;;;;;;;;-2.10;99.90;;;;;;5054805;28;19916;-77
2023/01/21 07:40:05;;;;;;;;;;;-2.10;99.90;;;;;;5056380;28;20004;-77
2023/01/21 07:42:31;;;;;;;;;;;-2.10;99.90;;;;;;5055862;28;20289;-77
2023/01/21 07:44:58;;;;;;;;;;;-2.10;99.90;;;;;;5055599;28;19920;-77
2023/01/21 07:47:24;;;;;;;;;;;-2.10;99.90;;;;;;5055608;28;19959;-78
2023/01/21 07:49:49;;;;;;;;;;;-2.10;99.90;;;;;;5056462;28;19917;-78
2023/01/21 07:52:15;;;;;;;;;;;-2.10;99.90;;;;;;5054989;28;20288;-77
2023/01/21 07:54:40;;;;;;;;;;;-2.10;99.90;;;;;;5055224;28;19952;-77
2023/01/21 07:57:06;;;;;;;;;;;-2.10;99.90;;;;;;5055612;28;20008;-78
2023/01/21 07:59:32;;;;;;;;;;;-2.10;99.90;;;;;;5055438;28;19982;-78
2023/01/21 08:01:57;;;;;;;;;;;-2.00;99.90;;;;;;5055026;28;19917;-77
2023/01/21 08:04:24;;;;;;;;;;;-2.00;99.90;;;;;;5056209;28;19963;-77
2023/01/21 08:06:55;;;;;;;;;;;-2.00;99.90;;;;;;5055803;28;19909;-77
2023/01/21 08:09:23;;;;;;;;;;;-2.00;99.90;;;;;;5055772;28;19913;-77
2023/01/21 08:11:49;;;;;;;;;;;-2.00;99.90;;;;;;5055987;28;20367;-77
2023/01/21 08:14:15;;;;;;;;;;;-2.00;99.90;;;;;;5053775;28;19935;-77
2023/01/21 08:16:40;;;;;;;;;;;-1.90;99.90;;;;;;5054080;28;19914;-77
2023/01/21 08:19:06;;;;;;;;;;;-1.90;99.90;;;;;;5054669;28;20381;-77
2023/01/21 08:21:31;;;;;;;;;;;-1.90;99.90;;;;;;5052055;28;20284;-77
2023/01/21 08:23:57;;;;;;;;;;;-1.90;99.90;;;;;;5034724;28;19913;-76
2023/01/21 08:26:22;;;;;;;;;;;-1.90;99.90;;;;;;5052468;28;20007;-76
2023/01/21 08:28:48;;;;;;;;;;;-1.80;99.90;;;;;;5053417;28;19984;-77
2023/01/21 08:31:17;;;;;;;;;;;-1.80;99.90;;;;;;5053737;28;20003;-77
2023/01/21 08:33:43;;;;;;;;;;;-1.80;99.90;;;;;;5053844;28;19917;-77
2023/01/21 08:36:09;;;;;;;;;;;-1.80;99.90;;;;;;5053934;28;19912;-77
2023/01/21 08:38:34;;;;;;;;;;;-1.80;99.90;;;;;;5053258;28;19913;-77
2023/01/21 08:41:00;;;;;;;;;;;-1.80;99.90;;;;;;5054330;28;19909;-77
2023/01/21 08:43:26;;;;;;;;;;;-1.70;99.90;;;;;;5036479;28;20384;-77
2023/01/21 08:45:54;;;;;;;;;;;-1.70;99.90;;;;;;5054355;28;20335;-77
2023/01/21 08:48:19;;;;;;;;;;;-1.60;99.90;;;;;;5054651;28;20503;-77
2023/01/21 08:50:45;;;;;;;;;;;-1.60;99.90;;;;;;5054452;28;20015;-77
2023/01/21 08:53:11;;;;;;;;;;;-1.50;99.90;;;;;;5054706;28;20354;-77
2023/01/21 08:55:37;;;;;;;;;;;-1.50;99.90;;;;;;5054142;28;19912;-77
2023/01/21 08:58:02;;;;;;;;;;;-1.50;99.90;;;;;;5054244;28;20376;-77
2023/01/21 09:00:31;;;;;;;;;;;-1.50;99.90;;;;;;5036062;28;20002;-77
2023/01/21 09:02:57;;;;;;;;;;;-1.50;99.90;;;;;;5036385;28;19920;-77
2023/01/21 09:05:23;;;;;;;;;;;-1.40;99.90;;;;;;5054209;28;19909;-77
2023/01/21 09:07:48;;;;;;;;;;;-1.40;99.90;;;;;;5053871;28;20012;-77
2023/01/21 09:10:59;;;;;;;;;;;-1.30;99.90;;;;;;5019548;28;20010;-77
2023/01/21 09:13:04;;;;;;;;;;;-1.20;99.90;;;;;;5053144;28;20391;-77
2023/01/21 09:15:29;;;;;;;;;;;-1.20;99.90;;;;;;5035873;28;19944;-77
2023/01/21 09:17:55;;;;;;;;;;;-1.10;99.90;;;;;;5053866;28;19962;-77
2023/01/21 09:20:20;;;;;;;;;;;-1.10;99.90;;;;;;5053820;28;19917;-77
2023/01/21 09:22:46;;;;;;;;;;;-1.00;99.90;;;;;;5036017;28;19912;-77
2023/01/21 09:25:11;;;;;;;;;;;-1.00;99.90;;;;;;5058412;28;19936;-77
2023/01/21 09:27:37;;;;;;;;;;;-1.00;99.90;;;;;;5054970;28;19924;-77
2023/01/21 09:30:03;;;;;;;;;;;-1.00;99.90;;;;;;5053787;28;19913;-77
2023/01/21 09:32:28;;;;;;;;;;;-0.90;99.90;;;;;;5054461;28;19962;-77
2023/01/21 09:34:54;;;;;;;;;;;-0.90;99.90;;;;;;5054042;28;19948;-77
2023/01/21 09:37:19;;;;;;;;;;;-0.90;99.90;;;;;;5054076;28;19947;-78
2023/01/21 09:39:45;;;;;;;;;;;-0.80;99.90;;;;;;5053879;28;20379;-77
2023/01/21 09:42:16;;;;;;;;;;;-0.90;99.90;;;;;;5053969;28;19920;-77
2023/01/21 09:44:46;;;;;;;;;;;-0.80;99.90;;;;;;5054322;28;19915;-77
2023/01/21 09:47:14;;;;;;;;;;;-0.80;99.90;;;;;;5053852;28;19909;-77
2023/01/21 09:49:46;;;;;;;;;;;-0.80;99.90;;;;;;5056587;28;19915;-77
2023/01/21 09:52:41;;;;;;;;;;;-0.80;99.90;;;;;;5057302;28;19913;-77
2023/01/21 09:55:14;;;;;;;;;;;-0.70;99.90;;;;;;4985555;28;19911;-77
2023/01/21 09:57:50;;;;;;;;;;;-0.70;99.90;;;;;;5056970;28;19909;-77
2023/01/21 10:00:18;;;;;;;;;;;-0.70;99.90;;;;;;5056696;28;19920;-77
2023/01/21 10:02:43;;;;;;;;;;;-0.60;99.90;;;;;;5056400;28;19919;-77
2023/01/21 10:05:31;;;;;;;;;;;-0.60;99.90;;;;;;5057151;28;20304;-77
2023/01/21 10:08:03;;;;;;;;;;;-0.50;99.90;;;;;;5053059;28;19923;-77
2023/01/21 10:10:47;;;;;;;;;;;-0.50;99.90;;;;;;5058275;28;19920;-77
2023/01/21 10:13:31;;;;;;;;;;;-0.40;99.90;;;;;;5062865;28;19909;-77
2023/01/21 10:16:06;;;;;;;;;;;-0.30;99.90;;;;;;5044383;28;19913;-77
2023/01/21 10:18:34;;;;;;;;;;;-0.30;99.90;;;;;;5061487;28;19909;-77
2023/01/21 10:21:05;;;;;;;;;;;-0.30;99.90;;;;;;5060814;28;19909;-77
2023/01/21 10:23:32;;;;;;;;;;;-0.20;99.90;;;;;;5060098;28;19963;-77
2023/01/21 10:25:59;;;;;;;;;;;-0.30;99.90;;;;;;5057144;28;19951;-77
2023/01/21 10:28:27;;;;;;;;;;;-0.30;99.90;;;;;;5038456;28;19913;-77
2023/01/21 10:30:53;;;;;;;;;;;-0.40;99.90;;;;;;5055794;28;19921;-77
2023/01/21 10:33:24;;;;;;;;;;;-0.40;99.90;;;;;;5056181;28;19932;-77
2023/01/21 10:35:49;;;;;;;;;;;-0.40;99.90;;;;;;5056188;28;19909;-77
2023/01/21 10:38:38;;;;;;;;;;;-0.40;99.90;;;;;;5056237;28;19978;-77
2023/01/21 10:41:14;;;;;;;;;;;-0.40;99.90;;;;;;5055988;28;20402;-77
2023/01/21 10:43:48;;;;;;;;;;;-0.40;99.90;;;;;;5038042;28;19962;-77
2023/01/21 10:46:43;;;;;;;;;;;-0.50;99.90;;;;;;5055558;28;19913;-77
2023/01/21 10:49:30;;;;;;;;;;;-0.50;99.90;;;;;;5038750;28;20246;-77
2023/01/21 10:52:08;;;;;;;;;;;-0.50;99.90;;;;;;5037958;28;19913;-77
2023/01/21 10:54:48;;;;;;;;;;;-0.50;99.90;;;;;;5055842;28;19966;-77
2023/01/21 10:57:40;;;;;;;;;;;-0.50;99.90;;;;;;5037809;28;20001;-77
2023/01/21 11:00:16;;;;;;;;;;;-0.50;99.90;;;;;;5049199;28;19917;-77
2023/01/21 11:02:41;;;;;;;;;;;-0.50;99.90;;;;;;5055674;28;19932;-77
2023/01/21 11:05:11;;;;;;;;;;;-0.50;99.90;;;;;;5055706;28;19913;-77
2023/01/21 11:07:38;;;;;;;;;;;-0.50;99.90;;;;;;5055707;28;19963;-77
2023/01/21 11:10:04;;;;;;;;;;;-0.50;99.90;;;;;;5055416;28;20365;-77
2023/01/21 11:12:31;;;;;;;;;;;-0.50;99.90;;;;;;5055290;28;19962;-77
2023/01/21 11:14:58;;;;;;;;;;;-0.50;99.90;;;;;;5037384;28;19909;-77
2023/01/21 11:17:31;;;;;;;;;;;-0.50;99.90;;;;;;5055021;28;20396;-77
2023/01/21 11:19:59;;;;;;;;;;;-0.50;99.90;;;;;;5055086;28;19908;-77
2023/01/21 11:22:28;;;;;;;;;;;-0.40;99.90;;;;;;5055238;28;20361;-77
2023/01/21 11:24:53;;;;;;;;;;;-0.40;99.90;;;;;;5055003;28;19996;-77
2023/01/21 11:27:21;;;;;;;;;;;-0.50;99.90;;;;;;5055097;28;19913;-77
2023/01/21 11:29:47;;;;;;;;;;;-0.60;99.90;;;;;;5055018;28;19970;-77
2023/01/21 11:32:13;;;;;;;;;;;-0.60;99.90;;;;;;5054819;28;19924;-77
2023/01/21 11:34:42;;;;;;;;;;;-0.60;99.90;;;;;;5055207;28;20277;-77
2023/01/21 11:37:15;;;;;;;;;;;-0.60;99.90;;;;;;5054914;28;19995;-77
2023/01/21 11:39:47;;;;;;;;;;;-0.60;99.90;;;;;;5054735;28;19915;-77
2023/01/21 11:42:14;;;;;;;;;;;-0.50;99.90;;;;;;5055264;28;19909;-77
2023/01/21 11:45:00;;;;;;;;;;;-0.60;99.90;;;;;;5055243;28;19978;-77
2023/01/21 11:47:45;;;;;;;;;;;-0.60;99.90;;;;;;5035779;28;20376;-77
2023/01/21 11:50:11;;;;;;;;;;;-0.60;99.90;;;;;;5054574;28;19948;-77
2023/01/21 11:52:36;;;;;;;;;;;-0.60;99.90;;;;;;5054510;28;20000;-77
2023/01/21 11:55:02;;;;;;;;;;;-0.50;99.90;;;;;;5054888;28;19952;-77
2023/01/21 11:57:29;;;;;;;;;;;-0.50;99.90;;;;;;5054670;28;20319;-77
2023/01/21 11:59:57;;;;;;;;;;;-0.40;99.90;;;;;;5054809;28;19923;-78
2023/01/21 12:02:26;;;;;;;;;;;-0.40;99.90;;;;;;5054832;28;19927;-77
2023/01/21 12:04:54;;;;;;;;;;;-0.40;99.90;;;;;;5054622;28;19909;-77
2023/01/21 12:07:46;;;;;;;;;;;-0.40;99.90;;;;;;5054448;28;19916;-77
2023/01/21 12:10:11;;;;;;;;;;;-0.50;99.90;;;;;;5050358;28;19916;-77
2023/01/21 12:12:37;;;;;;;;;;;-0.50;99.90;;;;;;5054892;28;19913;-77
2023/01/21 12:15:26;;;;;;;;;;;-0.50;99.90;;;;;;5054439;28;19916;-77
2023/01/21 12:18:03;;;;;;;;;;;-0.50;99.90;;;;;;5043528;28;19909;-77
2023/01/21 12:20:57;;;;;;;;;;;-0.50;99.90;;;;;;5054599;28;19982;-77
2023/01/21 12:23:41;;;;;;;;;;;-0.50;99.90;;;;;;5037106;28;19915;-77
2023/01/21 12:26:22;;;;;;;;;;;-0.50;99.90;;;;;;5054518;28;20104;-77
2023/01/21 12:29:06;;;;;;;;;;;-0.40;99.90;;;;;;5054253;28;19909;-77
2023/01/21 12:31:35;;;;;;;;;;;-0.40;99.90;;;;;;5054080;28;19913;-77
2023/01/21 12:34:05;;;;;;;;;;;-0.40;99.90;;;;;;5054153;28;19909;-77
2023/01/21 12:36:34;;;;;;;;;;;-0.40;99.90;;;;;;5036191;28;20418;-77
2023/01/21 12:39:12;;;;;;;;;;;-0.30;99.90;;;;;;5054604;28;19908;-77
2023/01/21 12:41:39;;;;;;;;;;;-0.40;99.90;;;;;;5053980;28;19915;-77
2023/01/21 12:44:16;;;;;;;;;;;-0.30;99.90;;;;;;5053950;28;19909;-77
2023/01/21 12:46:45;;;;;;;;;;;-0.30;99.90;;;;;;5054177;28;20276;-77
2023/01/21 12:49:16;;;;;;;;;;;-0.30;99.90;;;;;;5053893;28;20364;-77
2023/01/21 12:51:44;;;;;;;;;;;-0.20;99.90;;;;;;5053864;28;19912;-77
2023/01/21 12:54:12;;;;;;;;;;;-0.30;99.90;;;;;;5035999;28;19909;-77
2023/01/21 12:56:48;;;;;;;;;;;-0.30;99.90;;;;;;5036510;28;19909;-77
2023/01/21 12:59:18;;;;;;;;;;;-0.20;99.90;;;;;;5053851;28;19996;-77
2023/01/21 13:01:44;;;;;;;;;;;-0.20;99.90;;;;;;5054054;28;19986;-77
2023/01/21 13:04:26;;;;;;;;;;;-0.20;99.90;;;;;;5053751;28;20300;-77
2023/01/21 13:07:01;;;;;;;;;;;-0.20;99.90;;;;;;5053905;28;20284;-77
2023/01/21 13:09:32;;;;;;;;;;;-0.20;99.90;;;;;;5053827;28;20347;-77
2023/01/21 13:12:02;;;;;;;;;;;-0.20;99.90;;;;;;5054042;28;19913;-78
2023/01/21 13:14:27;;;;;;;;;;;-0.20;99.90;;;;;;5054251;28;19982;-77
2023/01/21 13:16:56;;;;;;;;;;;-0.30;99.90;;;;;;5054331;28;20441;-77
2023/01/21 13:19:21;;;;;;;;;;;-0.30;99.90;;;;;;5054271;28;19909;-77
2023/01/21 13:21:55;;;;;;;;;;;-0.30;99.90;;;;;;5053570;28;19919;-78
2023/01/21 13:24:21;;;;;;;;;;;-0.40;99.90;;;;;;5056005;28;19909;-77
2023/01/21 13:26:56;;;;;;;;;;;-0.40;99.90;;;;;;5058170;28;20007;-77
2023/01/21 13:29:44;;;;;;;;;;;-0.40;99.90;;;;;;5057840;28;20353;-77
2023/01/21 13:32:24;;;;;;;;;;;-0.50;99.90;;;;;;5057349;28;19913;-77
2023/01/21 13:35:12;;;;;;;;;;;-0.50;99.90;;;;;;5057981;28;19909;-77
2023/01/21 13:37:58;;;;;;;;;;;-0.50;99.90;;;;;;5058069;28;19948;-77
2023/01/21 13:40:28;;;;;;;;;;;-0.50;99.90;;;;;;5042985;28;19916;-77
2023/01/21 13:43:12;;;;;;;;;;;-0.50;99.90;;;;;;5057218;28;19912;-77
2023/01/21 13:45:47;;;;;;;;;;;-0.50;99.90;;;;;;5039241;28;19909;-77
2023/01/21 13:48:33;;;;;;;;;;;-0.50;99.90;;;;;;5057299;28;19916;-77
2023/01/21 13:51:17;;;;;;;;;;;-0.50;99.90;;;;;;5015163;28;19920;-77
2023/01/21 13:54:10;;;;;;;;;;;-0.50;99.90;;;;;;5057034;28;19964;-77
2023/01/21 13:56:57;;;;;;;;;;;-0.50;99.90;;;;;;5057535;28;19916;-73
2023/01/21 13:59:22;;;;;;;;;;;-0.60;99.90;;;;;;5057180;28;19908;-75
2023/01/21 14:02:00;;;;;;;;;;;-0.70;99.90;;;;;;5057191;28;20357;-74
2023/01/21 14:04:26;;;;;;;;;;;-0.80;99.90;;;;;;5057161;28;19916;-74
2023/01/21 14:06:59;;;;;;;;;;;-0.80;99.90;;;;;;5057785;28;19909;-74
2023/01/21 14:09:34;;;;;;;;;;;-0.90;99.90;;;;;;5057826;28;19909;-74
2023/01/21 14:12:16;;;;;;;;;;;-0.90;99.90;;;;;;5056406;28;19916;-74
2023/01/21 14:14:52;;;;;;;;;;;-0.90;99.90;;;;;;5039137;28;19909;-74
2023/01/21 14:17:24;;;;;;;;;;;-0.90;99.90;;;;;;5038565;28;19909;-74
2023/01/21 14:19:54;;;;;;;;;;;-0.90;99.90;;;;;;5057018;28;20011;-74
2023/01/21 14:22:38;;;;;;;;;;;-0.90;99.90;;;;;;5056776;28;19905;-74
2023/01/21 14:25:21;;;;;;;;;;;-0.90;99.90;;;;;;5038081;28;19913;-74
2023/01/21 14:28:07;;;;;;;;;;;-0.80;99.90;;;;;;5056836;28;19909;-74
2023/01/21 14:30:40;;;;;;;;;;;-0.80;99.90;;;;;;5040124;28;19912;-78
2023/01/21 14:33:08;;;;;;;;;;;-0.80;99.90;;;;;;5057099;28;19955;-77